Time;durP1;ratioP1;P1;durP2;ratioP2;P2;SDS_P1;SDS_P2;PMS_P1;PMS_P2;Temp;Humidity;BMP_temperature;BMP_pressure;BME280_temperature;BME280_humidity;BME280_pressure;Samples;Min_cycle;Max_cycle;Signal;HPM_P1;HPM_P2
2021/05/31 00:02:05;;;;;;;0.20;0.20;;;;;;;7.43;70.18;97741.22;5070648;28;20036;-63
2021/05/31 00:04:31;;;;;;;0.10;0.10;;;;;;;7.44;70.27;97743.72;5071701;28;20567;-62
2021/05/31 00:07:05;;;;;;;0.10;0.10;;;;;;;7.43;70.18;97735.78;5072199;28;20067;-63
2021/05/31 00:09:33;;;;;;;0.20;0.20;;;;;;;7.42;70.31;97740.41;5070457;28;20497;-63
2021/05/31 00:11:59;;;;;;;0.20;0.20;;;;;;;7.39;70.36;97740.06;5074927;28;20509;-64
2021/05/31 00:14:25;;;;;;;0.35;0.35;;;;;;;7.35;70.51;97731.53;5075817;28;20067;-64
2021/05/31 00:16:51;;;;;;;0.20;0.20;;;;;;;7.35;70.37;97746.00;5075469;28;20115;-61
2021/05/31 00:19:19;;;;;;;0.20;0.20;;;;;;;7.33;70.36;97737.22;5074073;28;20048;-62
2021/05/31 00:21:44;;;;;;;0.20;0.20;;;;;;;7.35;70.32;97746.00;5075437;28;20032;-63
2021/05/31 00:24:10;;;;;;;0.20;0.20;;;;;;;7.37;70.08;97746.56;5073890;28;20036;-64
2021/05/31 00:26:36;;;;;;;0.10;0.10;;;;;;;7.40;70.13;97752.66;5075093;28;20055;-62
2021/05/31 00:29:02;;;;;;;0.30;0.30;;;;;;;7.43;70.19;97749.44;5075112;28;20028;-63
2021/05/31 00:31:28;;;;;;;0.20;0.20;;;;;;;7.42;70.03;97745.88;5075315;28;20085;-63
2021/05/31 00:33:53;;;;;;;0.20;0.20;;;;;;;7.42;70.19;97750.50;5075071;28;20021;-63
2021/05/31 00:36:19;;;;;;;0.20;0.20;;;;;;;7.49;69.93;97752.03;5075522;28;20363;-63
2021/05/31 00:38:45;;;;;;;0.20;0.20;;;;;;;7.52;69.70;97750.72;5075109;28;20028;-62
2021/05/31 00:41:11;;;;;;;0.10;0.10;;;;;;;7.52;69.80;97750.72;5074867;28;20064;-62
2021/05/31 00:43:37;;;;;;;0.10;0.10;;;;;;;7.52;69.62;97758.91;5075345;28;20032;-62
2021/05/31 00:46:05;;;;;;;0.20;0.20;;;;;;;7.56;69.81;97753.81;5074795;28;20501;-62
2021/05/31 00:48:31;;;;;;;0.20;0.20;;;;;;;7.60;69.61;97755.81;5074982;28;20437;-65
2021/05/31 00:50:59;;;;;;;0.20;0.20;;;;;;;7.68;69.47;97751.84;5074965;28;20037;-62
2021/05/31 00:53:26;;;;;;;0.10;0.10;;;;;;;7.71;69.46;97768.63;5074627;28;20051;-60
2021/05/31 00:55:51;;;;;;;0.20;0.20;;;;;;;7.68;69.74;97754.59;5073325;28;20040;-62
2021/05/31 01:01:48;;;;;;;0.20;0.20;;;;;;;7.65;69.68;97776.94;5052086;28;20073;-65
2021/05/31 01:04:26;;;;;;;0.10;0.10;;;;;;;7.62;69.66;97772.78;5019891;28;20080;-64
2021/05/31 01:07:22;;;;;;;0.20;0.20;;;;;;;7.63;69.62;97782.63;5032466;28;20037;-61
2021/05/31 01:10:00;;;;;;;0.20;0.20;;;;;;;7.59;69.90;97778.72;4999594;28;20107;-63
2021/05/31 01:12:29;;;;;;;0.20;0.20;;;;;;;7.59;69.90;97783.38;5032406;28;20090;-61
2021/05/31 01:15:26;;;;;;;0.10;0.10;;;;;;;7.52;69.86;97778.88;5032299;28;20030;-65
2021/05/31 01:18:18;;;;;;;0.10;0.10;;;;;;;7.52;69.99;97788.94;5032026;28;20443;-60
2021/05/31 01:21:36;;;;;;;0.15;0.15;;;;;;;7.46;70.22;97777.06;5013658;28;20135;-64
2021/05/31 01:24:40;;;;;;;0.20;0.20;;;;;;;7.42;70.18;97775.06;5031968;28;20029;-63
2021/05/31 01:27:14;;;;;;;0.10;0.10;;;;;;;7.39;70.13;97786.47;4976291;28;20073;-62
2021/05/31 01:29:43;;;;;;;;;;;;;;;7.44;70.22;97786.59;4993123;28;20026;-61
2021/05/31 01:32:12;;;;;;;0.10;0.10;;;;;;;7.49;69.74;97790.28;4992828;28;19914;-61
2021/05/31 01:34:41;;;;;;;0.10;0.10;;;;;;;7.61;69.44;97798.44;4992616;28;20030;-61
2021/05/31 01:37:16;;;;;;;0.35;0.35;;;;;;;7.69;69.24;97794.50;4992546;28;20129;-62
2021/05/31 01:39:46;;;;;;;0.10;0.10;;;;;;;7.75;69.07;97774.41;4992762;28;20038;-62
2021/05/31 01:42:13;;;;;;;0.10;0.10;;;;;;;7.80;68.95;97774.53;4992811;28;20034;-62
2021/05/31 01:44:40;;;;;;;0.10;0.10;;;;;;;7.84;68.78;97788.53;4992869;28;20126;-63
2021/05/31 01:47:09;;;;;;;0.17;0.17;;;;;;;7.86;68.84;97779.03;4992312;28;20031;-63
2021/05/31 01:49:35;;;;;;;0.20;0.20;;;;;;;8.04;68.22;97794.41;4992213;28;20563;-63
2021/05/31 01:52:01;;;;;;;0.10;0.10;;;;;;;8.14;68.10;97787.47;4992947;28;20113;-62
2021/05/31 01:54:29;;;;;;;0.10;0.10;;;;;;;8.11;68.04;97791.50;4992370;28;20045;-62
2021/05/31 01:56:55;;;;;;;0.30;0.30;;;;;;;8.04;68.28;97794.41;4992586;28;20038;-62
2021/05/31 01:59:22;;;;;;;0.10;0.10;;;;;;;8.07;68.18;97791.19;4992030;28;20035;-61
2021/05/31 02:01:49;;;;;;;0.10;0.10;;;;;;;8.03;68.17;97798.19;4992559;28;20041;-61
2021/05/31 02:04:16;;;;;;;0.10;0.10;;;;;;;7.89;68.57;97811.31;5050652;28;20363;-63
2021/05/31 02:06:42;;;;;;;0.20;0.20;;;;;;;7.76;68.74;97819.81;5072960;28;20115;-60
2021/05/31 02:09:08;;;;;;;0.10;0.10;;;;;;;7.67;68.89;97818.50;5072976;28;20028;-61
2021/05/31 02:11:45;;;;;;;0.10;0.10;;;;;;;7.61;68.84;97814.84;5072852;28;20031;-61
2021/05/31 02:14:22;;;;;;;0.10;0.10;;;;;;;7.57;68.88;97810.94;5073144;28;20436;-61
2021/05/31 02:17:03;;;;;;;0.20;0.20;;;;;;;7.59;68.89;97827.91;5073188;28;20032;-60
2021/05/31 02:19:33;;;;;;;0.10;0.10;;;;;;;7.60;68.60;97835.03;5071979;28;20035;-61
2021/05/31 02:22:02;;;;;;;0.10;0.10;;;;;;;7.59;68.65;97833.34;5072832;28;20039;-62
2021/05/31 02:24:31;;;;;;;0.20;0.20;;;;;;;7.56;68.61;97833.84;5073005;28;20067;-61
2021/05/31 02:26:58;;;;;;;0.20;0.20;;;;;;;7.58;68.37;97825.41;5071799;28;20047;-62
2021/05/31 02:29:25;;;;;;;0.20;0.20;;;;;;;7.62;68.12;97823.84;5072524;28;20055;-62
2021/05/31 02:31:55;;;;;;;0.10;0.10;;;;;;;7.69;68.06;97844.50;5073107;28;20033;-62
2021/05/31 02:34:21;;;;;;;0.17;0.17;;;;;;;7.75;67.87;97848.19;5072447;28;20036;-62
2021/05/31 02:36:48;;;;;;;0.10;0.10;;;;;;;7.80;67.67;97839.25;5072564;28;20082;-62
2021/05/31 02:39:15;;;;;;;0.10;0.10;;;;;;;7.76;67.67;97838.09;5072996;28;20024;-63
2021/05/31 02:41:42;;;;;;;0.10;0.10;;;;;;;7.73;67.81;97844.88;5073176;28;20475;-65
2021/05/31 02:44:07;;;;;;;0.20;0.20;;;;;;;7.72;67.82;97833.09;5072461;28;20029;-64
2021/05/31 02:46:33;;;;;;;0.10;0.10;;;;;;;7.74;67.69;97823.84;5072985;28;20036;-64
2021/05/31 02:48:59;;;;;;;0.10;0.10;;;;;;;7.76;67.62;97818.94;5072713;28;20029;-63
2021/05/31 02:51:25;;;;;;;0.73;0.73;;;;;;;7.76;67.49;97811.59;5072946;28;20327;-63
2021/05/31 02:53:51;;;;;;;0.17;0.17;;;;;;;7.83;67.26;97819.66;5072799;28;20142;-62
2021/05/31 02:56:17;;;;;;;0.25;0.25;;;;;;;7.88;67.03;97825.25;5073127;28;20107;-64
2021/05/31 02:58:43;;;;;;;0.73;0.73;;;;;;;7.94;67.00;97832.47;5072473;28;20119;-66
2021/05/31 03:01:09;;;;;;;0.10;0.10;;;;;;;7.97;66.88;97840.19;5073084;28;20548;-64
2021/05/31 03:03:35;;;;;;;0.10;0.10;;;;;;;8.00;66.65;97844.34;5072212;28;20045;-63
2021/05/31 03:06:01;;;;;;;0.10;0.10;;;;;;;8.01;66.70;97845.97;5072477;28;20378;-62
2021/05/31 03:08:27;;;;;;;0.10;0.10;;;;;;;8.00;66.60;97838.88;5072916;28;20028;-61
2021/05/31 03:10:54;;;;;;;0.20;0.20;;;;;;;8.05;66.42;97837.06;5071076;28;20028;-64
2021/05/31 03:13:21;;;;;;;0.32;0.32;;;;;;;8.12;66.23;97841.56;5072497;28;20040;-61
2021/05/31 03:15:49;;;;;;;0.10;0.10;;;;;;;8.12;66.24;97852.50;5071188;28;20032;-61
2021/05/31 03:18:15;;;;;;;0.10;0.10;;;;;;;8.12;66.09;97864.25;5072267;28;20029;-61
2021/05/31 03:20:41;;;;;;;0.10;0.10;;;;;;;8.12;66.02;97866.19;5072901;28;20115;-61
2021/05/31 03:23:07;;;;;;;0.10;0.10;;;;;;;8.17;65.99;97863.53;5071340;28;20112;-62
2021/05/31 03:25:33;;;;;;;0.10;0.10;;;;;;;8.23;65.71;97862.59;5070928;28;20082;-64
2021/05/31 03:28:00;;;;;;;0.13;0.13;;;;;;;8.28;65.60;97857.19;5072566;28;20029;-61
2021/05/31 03:30:26;;;;;;;0.17;0.17;;;;;;;8.25;65.63;97872.19;5072326;28;20036;-61
2021/05/31 03:32:52;;;;;;;0.10;0.10;;;;;;;8.22;65.71;97858.19;5071844;28;20083;-61
2021/05/31 03:35:18;;;;;;;0.10;0.10;;;;;;;8.24;65.60;97866.97;5071179;28;20120;-62
2021/05/31 03:37:44;;;;;;;0.10;0.10;;;;;;;8.25;65.55;97865.91;5072319;28;20115;-61
2021/05/31 03:40:12;;;;;;;0.20;0.20;;;;;;;8.26;65.76;97862.09;5072179;28;20064;-63
2021/05/31 03:42:38;;;;;;;0.10;0.10;;;;;;;8.29;65.44;97868.97;5072054;28;20031;-62
2021/05/31 03:45:07;;;;;;;0.10;0.10;;;;;;;8.28;65.57;97873.63;5072062;28;20082;-65
2021/05/31 03:47:33;;;;;;;0.10;0.10;;;;;;;8.34;65.39;97883.56;5075830;28;20474;-65
2021/05/31 03:49:59;;;;;;;0.20;0.20;;;;;;;8.42;64.96;97875.00;5075924;28;20067;-62
2021/05/31 03:52:25;;;;;;;0.25;0.25;;;;;;;8.54;64.86;97874.16;5074588;28;20442;-62
2021/05/31 03:54:51;;;;;;;0.10;0.10;;;;;;;8.64;64.53;97903.59;5076099;28;20025;-63
2021/05/31 03:57:17;;;;;;;0.10;0.10;;;;;;;8.61;64.49;97893.97;5075941;28;20036;-61
2021/05/31 03:59:43;;;;;;;0.20;0.20;;;;;;;8.63;64.53;97901.94;5075614;28;20518;-62
2021/05/31 04:02:09;;;;;;;0.30;0.30;;;;;;;8.64;64.46;97892.66;5074376;28;20127;-61
2021/05/31 04:04:45;;;;;;;0.10;0.10;;;;;;;8.71;64.45;97899.63;5076358;28;20048;-61
2021/05/31 04:12:43;;;;;;;0.50;0.50;;;;;;;9.21;63.40;97902.69;5075399;28;20119;-63
2021/05/31 04:15:09;;;;;;;0.20;0.20;;;;;;;9.33;63.06;97905.34;5075553;28;20107;-62
2021/05/31 04:17:35;;;;;;;0.10;0.10;;;;;;;9.37;62.98;97903.78;5075880;28;20074;-64
2021/05/31 04:20:01;;;;;;;0.10;0.10;;;;;;;9.29;62.98;97908.59;5075673;28;20028;-61
2021/05/31 04:22:27;;;;;;;0.22;0.22;;;;;;;9.26;63.32;97913.72;5073871;28;20036;-63
2021/05/31 04:24:52;;;;;;;0.10;0.10;;;;;;;9.32;63.28;97923.72;5075047;28;20115;-62
2021/05/31 04:27:18;;;;;;;0.20;0.20;;;;;;;9.33;63.50;97911.66;5074116;28;20519;-63
2021/05/31 04:29:44;;;;;;;0.10;0.10;;;;;;;9.32;63.50;97931.94;5075193;28;20078;-62
2021/05/31 04:32:10;;;;;;;0.20;0.20;;;;;;;9.29;63.62;97927.78;5073688;28;20448;-62
2021/05/31 04:34:35;;;;;;;1.35;0.68;;;;;;;9.28;63.61;97934.31;5075293;28;20058;-62
2021/05/31 04:37:01;;;;;;;0.10;0.10;;;;;;;9.22;63.77;97926.28;5075056;28;20063;-62
2021/05/31 04:39:27;;;;;;;0.30;0.30;;;;;;;9.19;63.89;97926.78;5075516;28;20071;-62
2021/05/31 04:41:53;;;;;;;0.10;0.10;;;;;;;9.16;64.09;97924.50;5074452;28;20409;-61
2021/05/31 04:44:18;;;;;;;0.82;0.30;;;;;;;9.14;63.90;97921.19;5074953;28;20025;-64
2021/05/31 04:46:44;;;;;;;0.10;0.10;;;;;;;9.03;64.07;97923.75;5075231;28;20044;-64
2021/05/31 04:49:10;;;;;;;0.10;0.10;;;;;;;8.89;64.27;97931.47;5073380;28;20029;-62
2021/05/31 04:51:37;;;;;;;0.10;0.10;;;;;;;8.82;64.38;97939.00;5075203;28;20039;-63
2021/05/31 04:54:04;;;;;;;0.10;0.10;;;;;;;8.80;64.28;97941.13;5074618;28;20497;-62
2021/05/31 04:56:30;;;;;;;1.35;0.95;;;;;;;8.81;64.26;97944.72;5074611;28;20032;-62
2021/05/31 04:58:56;;;;;;;0.17;0.17;;;;;;;8.89;63.92;97928.72;5074509;28;20032;-62
2021/05/31 05:01:23;;;;;;;0.10;0.10;;;;;;;8.98;63.63;97942.84;5074274;28;20035;-61
2021/05/31 05:03:48;;;;;;;0.10;0.10;;;;;;;8.98;63.56;97951.06;5074281;28;20048;-62
2021/05/31 05:06:14;;;;;;;0.10;0.10;;;;;;;8.92;63.32;97944.66;5074601;28;20090;-62
2021/05/31 05:08:40;;;;;;;0.30;0.30;;;;;;;8.89;63.39;97942.41;5072926;28;20567;-63
2021/05/31 05:11:08;;;;;;;0.10;0.10;;;;;;;8.97;63.26;97943.91;5074186;28;20086;-61
2021/05/31 05:13:34;;;;;;;0.10;0.10;;;;;;;8.99;62.81;97939.00;5074486;28;20119;-62
2021/05/31 05:16:00;;;;;;;0.10;0.10;;;;;;;9.05;62.57;97953.63;5074758;28;20504;-61
2021/05/31 05:18:26;;;;;;;0.52;0.52;;;;;;;9.15;62.16;97963.94;5074633;28;20533;-62
2021/05/31 05:20:51;;;;;;;0.10;0.10;;;;;;;9.19;61.90;97954.16;5072850;28;20036;-61
2021/05/31 05:23:17;;;;;;;0.10;0.10;;;;;;;9.35;61.42;97953.34;5074344;28;20067;-62
2021/05/31 05:25:45;;;;;;;0.17;0.17;;;;;;;9.45;61.11;97953.53;5074092;28;20490;-62
2021/05/31 05:28:11;;;;;;;0.10;0.10;;;;;;;9.57;60.71;97960.81;5074277;28;20043;-62
2021/05/31 05:30:37;;;;;;;0.10;0.10;;;;;;;9.68;60.35;97962.63;5074523;28;20032;-61
2021/05/31 05:33:02;;;;;;;0.15;0.15;;;;;;;9.81;59.85;97969.69;5074138;28;20058;-61
2021/05/31 05:38:09;;;;;;;0.10;0.10;;;;;;;10.16;58.84;97955.69;5074438;28;20504;-62
2021/05/31 05:46:24;;;;;;;;;;;;;;;9.85;59.28;97972.75;5074172;28;20444;-61
2021/05/31 05:48:53;;;;;;;0.10;0.10;;;;;;;9.70;59.48;97976.94;5072411;28;20293;-61
2021/05/31 05:51:22;;;;;;;0.10;0.10;;;;;;;9.57;59.57;97977.25;5072275;28;20024;-62
2021/05/31 05:53:48;;;;;;;0.10;0.10;;;;;;;9.44;59.91;97990.22;5073707;28;20028;-63
2021/05/31 05:56:19;;;;;;;0.10;0.10;;;;;;;9.35;60.13;98001.81;5073404;28;20037;-61
2021/05/31 05:58:48;;;;;;;0.10;0.10;;;;;;;9.30;60.13;98016.25;5073580;28;20039;-61
2021/05/31 06:01:15;;;;;;;0.10;0.10;;;;;;;9.23;60.07;98010.09;5055813;28;20040;-61
2021/05/31 06:03:42;;;;;;;0.10;0.10;;;;;;;9.22;60.10;98013.94;5072228;28;20060;-61
2021/05/31 06:06:09;;;;;;;0.15;0.15;;;;;;;9.27;60.02;98008.53;5073569;28;20112;-60
2021/05/31 06:08:36;;;;;;;0.20;0.20;;;;;;;9.22;59.77;98002.97;5072234;28;20549;-60
2021/05/31 06:11:03;;;;;;;0.10;0.10;;;;;;;9.26;59.62;98009.59;5073563;28;20044;-61
2021/05/31 06:13:29;;;;;;;0.10;0.10;;;;;;;9.25;59.34;98013.44;5072563;28;20477;-62
2021/05/31 06:15:59;;;;;;;0.20;0.20;;;;;;;9.26;59.31;98015.06;5062631;28;20055;-62
2021/05/31 06:18:25;;;;;;;0.17;0.17;;;;;;;9.25;59.15;98029.88;5057832;28;20039;-64
2021/05/31 06:20:51;;;;;;;0.10;0.10;;;;;;;9.20;59.07;98043.47;5064541;28;20040;-60
2021/05/31 06:23:17;;;;;;;0.20;0.20;;;;;;;9.18;58.99;98018.22;5065749;28;20413;-61
2021/05/31 06:25:42;;;;;;;0.13;0.13;;;;;;;9.23;58.72;98012.84;5070705;28;20055;-61
2021/05/31 06:28:08;;;;;;;0.10;0.10;;;;;;;9.37;58.34;98033.38;5070136;28;20032;-62
2021/05/31 06:30:35;;;;;;;0.10;0.10;;;;;;;9.38;58.24;98023.22;5070880;28;20036;-61
2021/05/31 06:33:01;;;;;;;0.10;0.10;;;;;;;9.35;58.29;98045.66;5070079;28;20082;-61
2021/05/31 06:35:28;;;;;;;0.20;0.20;;;;;;;9.30;58.34;98029.94;5069612;28;20044;-62
2021/05/31 06:37:55;;;;;;;0.57;0.28;;;;;;;9.30;58.16;98062.81;5070698;28;20032;-61
2021/05/31 06:40:21;;;;;;;0.10;0.10;;;;;;;9.23;58.19;98056.66;5070200;28;20066;-61
2021/05/31 06:42:48;;;;;;;0.10;0.10;;;;;;;9.16;58.29;98029.44;5070437;28;20413;-60
2021/05/31 06:45:21;;;;;;;0.10;0.10;;;;;;;9.09;58.40;98043.25;5068442;28;20414;-62
2021/05/31 06:47:48;;;;;;;0.17;0.17;;;;;;;9.08;58.36;98062.69;5069537;28;20029;-62
2021/05/31 06:50:18;;;;;;;0.15;0.15;;;;;;;9.00;58.38;98077.59;5070402;28;20356;-61
2021/05/31 06:52:44;;;;;;;0.10;0.10;;;;;;;8.84;58.71;98064.66;5065678;28;20417;-63
2021/05/31 06:55:10;;;;;;;0.10;0.10;;;;;;;8.74;58.87;98066.09;5069323;28;20033;-60
2021/05/31 06:57:37;;;;;;;0.10;0.10;;;;;;;8.66;58.80;98085.63;5068618;28;20445;-63
2021/05/31 07:00:09;;;;;;;0.10;0.10;;;;;;;8.64;58.80;98081.47;5067997;28;20082;-61
2021/05/31 07:02:35;;;;;;;0.10;0.10;;;;;;;8.64;58.70;98093.25;5061032;28;20457;-62
2021/05/31 07:05:02;;;;;;;0.10;0.10;;;;;;;8.59;58.68;98085.75;5068914;28;20123;-64
2021/05/31 07:07:28;;;;;;;0.10;0.10;;;;;;;8.53;58.75;98092.19;5066220;28;20517;-63
2021/05/31 07:09:54;;;;;;;0.10;0.10;;;;;;;8.51;58.81;98104.44;5068925;28;20032;-66
2021/05/31 07:12:19;;;;;;;0.10;0.10;;;;;;;8.47;58.76;98100.53;5069454;28;20086;-60
2021/05/31 07:14:47;;;;;;;0.57;0.40;;;;;;;8.51;58.67;98112.66;5069205;28;20414;-63
2021/05/31 07:17:14;;;;;;;0.10;0.10;;;;;;;8.42;58.75;98104.78;5070120;28;20040;-59
2021/05/31 07:19:43;;;;;;;0.10;0.10;;;;;;;8.30;59.16;98109.41;5065441;28;20032;-62
2021/05/31 07:22:26;;;;;;;0.10;0.10;;;;;;;8.22;59.22;98112.50;5063714;28;20036;-62
2021/05/31 07:24:52;;;;;;;0.20;0.20;;;;;;;8.20;59.42;98128.31;5073202;28;20032;-62
2021/05/31 07:27:19;;;;;;;0.10;0.10;;;;;;;8.19;59.23;98145.81;5073857;28;20504;-63
2021/05/31 07:29:45;;;;;;;0.20;0.20;;;;;;;8.14;59.41;98138.31;5072933;28;20124;-51
2021/05/31 07:32:12;;;;;;;0.50;0.50;;;;;;;8.15;59.39;98139.97;5071884;28;20089;-61
2021/05/31 07:34:38;;;;;;;0.20;0.20;;;;;;;8.21;59.29;98146.38;5071852;28;20028;-60
2021/05/31 07:37:04;;;;;;;0.22;0.22;;;;;;;8.23;59.07;98144.28;5072904;28;20555;-61
2021/05/31 07:39:31;;;;;;;0.30;0.30;;;;;;;8.22;59.20;98146.16;5073538;28;20052;-61
2021/05/31 07:41:57;;;;;;;0.10;0.10;;;;;;;8.24;59.36;98154.13;5072474;28;20421;-61
2021/05/31 07:44:22;;;;;;;0.10;0.10;;;;;;;8.33;59.15;98155.47;5073110;28;20040;-57
2021/05/31 07:46:48;;;;;;;0.20;0.20;;;;;;;8.39;58.93;98162.72;5072800;28;20036;-61
2021/05/31 07:49:15;;;;;;;0.20;0.20;;;;;;;8.55;58.56;98158.47;5072689;28;20033;-61
2021/05/31 07:51:45;;;;;;;0.13;0.13;;;;;;;8.76;58.29;98156.22;5071692;28;20115;-58
2021/05/31 07:54:12;;;;;;;0.10;0.10;;;;;;;8.97;57.89;98162.97;5072427;28;20033;-61
2021/05/31 07:56:38;;;;;;;0.10;0.10;;;;;;;9.22;57.35;98161.84;5072922;28;20470;-60
2021/05/31 07:59:04;;;;;;;0.20;0.20;;;;;;;9.43;57.11;98163.09;5065964;28;20067;-59
2021/05/31 08:01:30;;;;;;;0.10;0.10;;;;;;;9.71;56.66;98170.47;5059581;28;20125;-61
2021/05/31 08:03:56;;;;;;;0.10;0.10;;;;;;;10.00;56.21;98170.47;5058687;28;20561;-63
2021/05/31 08:06:22;;;;;;;0.60;0.60;;;;;;;10.26;55.70;98170.91;5072650;28;20429;-60
2021/05/31 08:08:48;;;;;;;0.20;0.20;;;;;;;10.41;55.69;98179.44;5070111;28;20048;-62
2021/05/31 08:11:14;;;;;;;0.20;0.20;;;;;;;10.59;55.38;98166.53;5052186;28;20091;-64
2021/05/31 08:13:40;;;;;;;0.20;0.20;;;;;;;10.81;54.88;98167.41;5066543;28;20458;-62
2021/05/31 08:16:07;;;;;;;0.10;0.10;;;;;;;10.94;55.06;98177.22;5057588;28;20036;-63
2021/05/31 08:18:34;;;;;;;0.13;0.13;;;;;;;11.00;54.88;98175.38;5057829;28;20029;-63
2021/05/31 08:21:00;;;;;;;0.20;0.20;;;;;;;11.24;54.68;98180.66;5064366;28;20025;-61
2021/05/31 08:23:26;;;;;;;0.25;0.25;;;;;;;11.54;53.93;98181.03;5071787;28;20036;-62
2021/05/31 08:25:53;;;;;;;0.10;0.10;;;;;;;11.74;53.70;98182.34;5072652;28;20032;-63
2021/05/31 08:28:19;;;;;;;0.10;0.10;;;;;;;11.68;53.95;98175.13;5072270;28;20036;-61
2021/05/31 08:30:45;;;;;;;0.10;0.10;;;;;;;11.65;54.17;98172.91;5071840;28;20108;-62
2021/05/31 08:33:11;;;;;;;0.10;0.10;;;;;;;11.85;53.74;98180.53;5071662;28;20032;-62
2021/05/31 08:35:41;;;;;;;0.10;0.10;;;;;;;11.86;53.88;98174.75;5071514;28;20123;-65
2021/05/31 08:38:07;;;;;;;0.20;0.20;;;;;;;12.07;53.23;98177.75;5072176;28;20040;-63
2021/05/31 08:40:34;;;;;;;0.10;0.10;;;;;;;12.01;53.29;98181.56;5070476;28;20033;-61
2021/05/31 08:43:01;;;;;;;0.20;0.20;;;;;;;11.73;53.99;98194.41;5072008;28;20086;-59
2021/05/31 08:45:29;;;;;;;0.10;0.10;;;;;;;11.53;54.36;98178.53;5071867;28;20047;-62
2021/05/31 08:47:56;;;;;;;0.10;0.10;;;;;;;11.41;54.52;98184.16;5071454;28;20116;-62
2021/05/31 08:50:32;;;;;;;0.20;0.20;;;;;;;11.33;54.72;98174.44;5072321;28;20024;-61
2021/05/31 08:52:58;;;;;;;0.10;0.10;;;;;;;11.20;54.76;98181.16;5071905;28;20264;-62
2021/05/31 08:55:26;;;;;;;0.20;0.20;;;;;;;11.09;54.79;98190.34;5070244;28;20612;-62
2021/05/31 08:57:53;;;;;;;0.20;0.20;;;;;;;10.93;55.14;98183.78;5071899;28;20043;-62
2021/05/31 09:00:24;;;;;;;0.57;0.57;;;;;;;10.92;54.83;98190.34;5072035;28;20513;-60
2021/05/31 09:02:50;;;;;;;0.10;0.10;;;;;;;10.94;54.67;98182.72;5070847;28;20048;-63
2021/05/31 09:05:27;;;;;;;0.10;0.10;;;;;;;10.90;54.81;98199.94;5071826;28;20612;-62
2021/05/31 09:07:53;;;;;;;0.10;0.10;;;;;;;10.82;54.66;98204.78;5072129;28;20501;-61
2021/05/31 09:10:19;;;;;;;0.10;0.10;;;;;;;10.76;54.61;98199.44;5069817;28;20024;-59
2021/05/31 09:12:46;;;;;;;0.10;0.10;;;;;;;10.75;54.64;98195.88;5070530;28;20032;-61
2021/05/31 09:15:14;;;;;;;0.10;0.10;;;;;;;10.64;54.35;98210.53;5070980;28;20025;-62
2021/05/31 09:17:41;;;;;;;0.10;0.10;;;;;;;10.55;54.58;98207.38;5071342;28;20066;-62
2021/05/31 09:20:08;;;;;;;0.10;0.10;;;;;;;10.47;54.20;98230.56;5070232;28;20052;-57
2021/05/31 09:22:56;;;;;;;0.10;0.10;;;;;;;10.51;54.02;98211.69;5071012;28;20036;-60
2021/05/31 09:25:35;;;;;;;0.10;0.10;;;;;;;10.62;53.64;98231.91;5070545;28;20036;-61
2021/05/31 09:28:04;;;;;;;0.10;0.10;;;;;;;10.61;53.38;98227.50;5069106;28;20086;-62
2021/05/31 09:30:42;;;;;;;0.30;0.30;;;;;;;10.56;53.79;98231.00;5071066;28;20427;-60
2021/05/31 09:33:11;;;;;;;0.10;0.10;;;;;;;10.50;53.50;98234.75;5070960;28;20029;-60
2021/05/31 09:35:45;;;;;;;0.10;0.10;;;;;;;10.43;53.65;98232.16;5069456;28;20041;-58
2021/05/31 09:38:14;;;;;;;0.20;0.20;;;;;;;10.51;53.59;98230.91;5071076;28;20037;-61
2021/05/31 09:40:50;;;;;;;0.10;0.10;;;;;;;10.59;53.17;98243.41;5069996;28;20515;-57
2021/05/31 09:43:16;;;;;;;0.20;0.20;;;;;;;10.61;53.23;98244.78;5069858;28;20055;-59
2021/05/31 09:45:47;;;;;;;0.10;0.10;;;;;;;10.69;52.97;98240.81;5070636;28;20029;-60
2021/05/31 09:48:13;;;;;;;0.10;0.10;;;;;;;10.79;52.78;98232.75;5070953;28;20239;-62
2021/05/31 09:50:39;;;;;;;0.10;0.10;;;;;;;10.87;52.39;98245.22;5070711;28;20032;-62
2021/05/31 09:53:10;;;;;;;0.10;0.10;;;;;;;10.84;52.36;98237.50;5064726;28;20039;-63
2021/05/31 09:55:44;;;;;;;0.20;0.20;;;;;;;10.85;52.41;98230.91;5070167;28;20048;-61
2021/05/31 09:58:12;;;;;;;0.10;0.10;;;;;;;10.96;52.33;98229.16;5071213;28;20194;-62
2021/05/31 10:00:40;;;;;;;0.10;0.10;;;;;;;11.30;51.38;98218.09;5070905;28;20149;-62
2021/05/31 10:08:42;;;;;;;0.10;0.10;;;;;;;12.12;49.97;98238.38;5051514;28;20267;-62
2021/05/31 10:11:08;;;;;;;0.10;0.10;;;;;;;12.29;49.84;98237.41;5056730;28;20029;-62
2021/05/31 10:13:37;;;;;;;0.10;0.10;;;;;;;12.33;49.50;98241.31;5058074;28;20395;-62
2021/05/31 10:16:04;;;;;;;0.30;0.30;;;;;;;12.41;49.83;98246.34;5048250;28;20056;-65
2021/05/31 10:18:31;;;;;;;0.10;0.10;;;;;;;12.53;49.83;98251.69;5031188;28;20033;-62
2021/05/31 10:20:58;;;;;;;0.10;0.10;;;;;;;12.68;49.39;98240.00;5048378;28;20769;-61
2021/05/31 10:23:24;;;;;;;0.10;0.10;;;;;;;12.79;49.13;98234.31;5042536;28;20032;-64
2021/05/31 10:25:56;;;;;;;0.10;0.10;;;;;;;13.00;48.99;98247.38;5033789;28;20468;-62
2021/05/31 10:28:29;;;;;;;0.20;0.20;;;;;;;13.11;48.72;98238.09;5050715;28;20099;-61
2021/05/31 10:31:13;;;;;;;0.30;0.30;;;;;;;13.17;48.67;98230.69;5050240;28;20037;-60
2021/05/31 10:33:40;;;;;;;0.10;0.10;;;;;;;13.13;48.85;98233.13;5047784;28;20045;-62
2021/05/31 10:36:19;;;;;;;0.10;0.10;;;;;;;13.10;49.29;98239.19;5063389;28;20175;-62
2021/05/31 10:38:47;;;;;;;0.60;0.60;;;;;;;12.93;49.47;98242.13;5067561;28;20390;-63
2021/05/31 10:41:24;;;;;;;0.10;0.10;;;;;;;12.78;49.87;98248.34;5068298;28;20043;-63
2021/05/31 10:43:54;;;;;;;0.57;0.43;;;;;;;12.72;49.94;98238.34;5070418;28;20051;-63
2021/05/31 10:46:47;;;;;;;0.10;0.10;;;;;;;12.77;49.82;98241.97;5067727;28;20051;-55
2021/05/31 10:49:19;;;;;;;0.20;0.20;;;;;;;12.86;49.32;98258.84;5068624;28;20072;-63
2021/05/31 10:51:45;;;;;;;0.10;0.10;;;;;;;12.87;49.45;98249.50;5070125;28;20041;-65
2021/05/31 10:54:24;;;;;;;0.20;0.20;;;;;;;12.60;49.74;98236.63;5068199;28;20628;-60
2021/05/31 10:56:52;;;;;;;0.10;0.10;;;;;;;12.27;50.35;98243.19;5069917;28;20036;-62
2021/05/31 10:59:20;;;;;;;0.10;0.10;;;;;;;12.14;50.43;98243.59;5068025;28;20039;-62
2021/05/31 11:01:46;;;;;;;0.10;0.10;;;;;;;11.94;50.60;98245.06;5067669;28;20120;-65
2021/05/31 11:04:20;;;;;;;0.10;0.10;;;;;;;11.78;50.77;98249.50;5068141;28;20135;-59
2021/05/31 11:06:50;;;;;;;0.10;0.10;;;;;;;11.69;50.90;98240.88;5069995;28;20087;-62
2021/05/31 11:09:19;;;;;;;0.10;0.10;;;;;;;11.64;50.75;98249.03;5069476;28;20044;-62
2021/05/31 11:11:50;;;;;;;0.10;0.10;;;;;;;11.62;50.56;98253.97;5070037;28;20043;-63
2021/05/31 11:14:30;;;;;;;0.10;0.10;;;;;;;11.46;50.72;98252.94;5069816;28;20524;-62
2021/05/31 11:17:01;;;;;;;0.20;0.20;;;;;;;11.44;50.45;98238.63;5066498;28;20041;-62
2021/05/31 11:19:40;;;;;;;0.10;0.10;;;;;;;11.50;50.31;98270.59;5069548;28;20470;-62
2021/05/31 11:22:12;;;;;;;0.20;0.20;;;;;;;11.48;50.04;98252.69;5069138;28;20032;-62
2021/05/31 11:24:38;;;;;;;0.10;0.10;;;;;;;11.44;50.04;98252.38;5069021;28;20533;-61
2021/05/31 11:27:04;;;;;;;0.10;0.10;;;;;;;11.44;49.88;98246.88;5069565;28;20043;-62
2021/05/31 11:29:30;;;;;;;0.10;0.10;;;;;;;11.44;49.85;98263.38;5069883;28;20029;-63
2021/05/31 11:31:56;;;;;;;0.10;0.10;;;;;;;11.39;50.00;98257.78;5070216;28;20522;-63
2021/05/31 11:34:24;;;;;;;0.10;0.10;;;;;;;11.33;50.02;98254.13;5059220;28;20040;-62
2021/05/31 11:36:50;;;;;;;0.10;0.10;;;;;;;11.50;49.72;98250.53;5059799;28;20036;-62
2021/05/31 11:39:21;;;;;;;0.20;0.20;;;;;;;11.69;48.94;98251.88;5063085;28;20029;-67
2021/05/31 11:41:53;;;;;;;0.30;0.30;;;;;;;11.87;48.89;98250.72;5065840;28;20036;-62
2021/05/31 11:44:30;;;;;;;0.28;0.28;;;;;;;12.17;48.18;98243.09;5069364;28;20040;-61
2021/05/31 11:46:59;;;;;;;0.20;0.20;;;;;;;12.45;47.58;98258.50;5067806;28;20028;-61
2021/05/31 11:49:27;;;;;;;0.10;0.10;;;;;;;12.49;47.44;98251.38;5049744;28;20060;-63
2021/05/31 11:52:00;;;;;;;0.10;0.10;;;;;;;12.35;47.97;98252.91;5069680;28;20047;-61
2021/05/31 11:54:27;;;;;;;0.10;0.10;;;;;;;12.24;48.07;98255.53;5067838;28;20071;-60
2021/05/31 11:56:57;;;;;;;0.43;0.20;;;;;;;12.22;48.24;98251.38;5068878;28;20077;-61
2021/05/31 11:59:23;;;;;;;0.20;0.20;;;;;;;12.34;47.88;98262.25;5067912;28;20115;-61
2021/05/31 12:01:58;;;;;;;0.25;0.25;;;;;;;12.56;47.63;98264.94;5068638;28;20048;-61
2021/05/31 12:04:25;;;;;;;0.10;0.10;;;;;;;12.54;47.51;98262.44;5066904;28;20067;-62
2021/05/31 12:06:59;;;;;;;0.10;0.10;;;;;;;12.43;47.69;98274.47;5070574;28;20075;-61
2021/05/31 12:09:24;;;;;;;0.10;0.10;;;;;;;12.33;47.99;98268.84;5072841;28;20028;-61